Terminal Aerodrome Forecast
Issued by NWS Shreveport, LA

Home | Current Version | Previous Version | Text Only | Print | Product List | Glossary On
Versions: 1 2 3 4 5 6 7 8 9 10 11 12 13 14 15 16 17
000
FTUS44 KSHV 191223 AAA
TAFELD
TAF AMD
KELD 191223Z 1912/2012 11003KT 6SM BR OVC009
     FM191300 12004KT 3SM BR OVC005
     FM191500 13005KT P6SM BKN010 OVC020
     FM191800 13006KT P6SM BKN015 OVC025
     FM192100 13007KT P6SM SCT030 BKN250
     FM200000 12005KT P6SM FEW040 BKN250=

USA.gov is the U.S. government's official web portal to all federal, state and local government web resources and services.